Terminal Aerodrome Forecast
Issued by NWS Lake Charles, LA

Home | Current Version | Previous Version | Text Only | Print | Product List | Glossary On
Versions: 1 2 3 4 5 6 7 8 9 10 11 12 13
000
FTUS44 KLCH 231736
TAFARA
TAF
KARA 231736Z 2318/2418 06007KT P6SM FEW040 SCT250
     FM232000 11005KT P6SM VCTS FEW025CB SCT040 BKN100
     FM240000 VRB03KT P6SM FEW100 OVC250
     FM241600 05007KT P6SM VCSH SCT025 BKN040=

USA.gov is the U.S. government's official web portal to all federal, state and local government web resources and services.